createdAt,value
2023-03-26T00:04:34.991Z,99437.72
2023-03-26T00:19:38.211Z,99439.59
2023-03-26T00:34:42.114Z,99432.84
2023-03-26T00:49:46.982Z,99409.50
2023-03-26T01:04:56.998Z,99387.25
2023-03-26T01:20:20.249Z,99379.31
2023-03-26T01:35:31.101Z,99371.63
2023-03-26T01:50:33.136Z,99367.47
2023-03-26T02:05:47.206Z,99374.63
2023-03-26T02:20:49.185Z,99351.63
2023-03-26T02:35:52.079Z,99343.81
2023-03-26T02:50:57.147Z,99336.84
2023-03-26T03:05:59.037Z,99319.75
2023-03-26T03:21:00.932Z,99325.00
2023-03-26T03:36:20.286Z,99326.31
2023-03-26T03:51:24.077Z,99313.59
2023-03-26T04:06:26.019Z,99298.53
2023-03-26T04:21:30.521Z,99286.41
2023-03-26T04:36:34.724Z,99273.38
2023-03-26T04:51:38.831Z,99285.28
2023-03-26T05:06:43.746Z,99297.69
2023-03-26T05:21:46.153Z,99285.41
2023-03-26T05:36:49.004Z,99298.16
2023-03-26T05:51:50.984Z,99308.47
2023-03-26T06:06:52.956Z,99313.31
2023-03-26T06:21:54.756Z,99317.53
2023-03-26T06:36:56.886Z,99288.56
2023-03-26T06:51:58.804Z,99301.47
2023-03-26T07:07:01.127Z,99315.72
2023-03-26T07:22:03.399Z,99331.59
2023-03-26T07:37:17.205Z,99335.22
2023-03-26T07:52:19.400Z,99332.91
2023-03-26T08:07:24.415Z,99328.78
2023-03-26T08:22:41.924Z,99330.09
2023-03-26T08:37:45.878Z,99317.28
2023-03-26T08:53:34.471Z,99323.66
2023-03-26T09:08:57.919Z,99315.41
2023-03-26T09:24:30.181Z,99303.50
2023-03-26T09:39:39.193Z,99273.16
2023-03-26T09:55:15.665Z,99270.56
2023-03-26T10:10:31.735Z,99275.97
2023-03-26T10:25:45.053Z,99260.84
2023-03-26T10:41:05.129Z,99260.22
2023-03-26T10:56:33.134Z,99250.69
2023-03-26T11:11:53.384Z,99258.31
2023-03-26T11:27:15.948Z,99240.78
2023-03-26T11:42:23.669Z,99222.72
2023-03-26T11:57:33.432Z,99223.91
2023-03-26T12:12:42.482Z,99214.03
2023-03-26T12:27:49.602Z,99210.94
2023-03-26T12:44:48.007Z,99207.63
2023-03-26T12:58:35.597Z,99188.34
2023-03-26T13:13:46.353Z,99173.56
2023-03-26T13:29:17.743Z,99176.28
2023-03-26T13:44:19.648Z,99144.56
2023-03-26T13:59:32.624Z,99134.78
2023-03-26T14:14:44.348Z,99129.97
2023-03-26T14:30:05.237Z,99111.69
2023-03-26T14:45:23.074Z,99102.59
2023-03-26T15:00:43.873Z,99105.09
2023-03-26T15:16:00.812Z,99102.88
2023-03-26T15:31:24.475Z,99095.97
2023-03-26T15:46:43.710Z,99090.78
2023-03-26T16:01:51.738Z,99080.31
2023-03-26T16:17:00.560Z,99084.50
2023-03-26T16:32:28.737Z,99087.94
2023-03-26T16:48:09.246Z,99091.53
2023-03-26T17:03:38.644Z,99082.13
2023-03-26T17:19:04.495Z,99093.63
2023-03-26T17:34:47.279Z,99084.97
2023-03-26T17:49:55.261Z,99081.19
2023-03-26T18:04:57.423Z,99079.03
2023-03-26T18:20:07.309Z,99061.16
2023-03-26T18:35:20.445Z,99058.69
2023-03-26T18:50:29.410Z,99042.81
2023-03-26T19:05:33.955Z,99054.94
2023-03-26T19:20:48.631Z,99036.91
2023-03-26T19:36:03.621Z,99027.81
2023-03-26T19:51:06.689Z,99021.19
2023-03-26T20:06:18.089Z,99026.28
2023-03-26T20:21:19.959Z,99026.59
2023-03-26T20:36:33.021Z,99010.00
2023-03-26T20:51:39.006Z,99003.44
2023-03-26T21:06:41.125Z,99011.38
2023-03-26T21:21:59.168Z,99015.50
2023-03-26T21:37:01.708Z,99013.25
2023-03-26T21:52:04.012Z,99029.53
2023-03-26T22:07:24.217Z,99025.66
2023-03-26T22:22:26.400Z,99015.81
2023-03-26T22:37:28.831Z,99024.53
2023-03-26T22:52:31.270Z,99022.00
2023-03-26T23:07:33.095Z,99022.84
2023-03-26T23:22:35.451Z,99021.94
2023-03-26T23:37:37.275Z,99020.63
2023-03-26T23:52:39.402Z,99026.38
